createdAt,value
2019-04-29T00:00:14.738Z,6.47
2019-04-29T00:02:20.875Z,5.13
2019-04-29T00:04:25.273Z,3.10
2019-04-29T00:06:29.269Z,3.57
2019-04-29T00:08:33.120Z,8.33
2019-04-29T00:10:37.140Z,4.13
2019-04-29T00:12:41.043Z,4.13
2019-04-29T00:14:46.467Z,3.43
2019-04-29T00:17:10.259Z,2.73
2019-04-29T00:19:19.055Z,4.07
2019-04-29T00:21:23.463Z,4.50
2019-04-29T00:23:27.326Z,4.17
2019-04-29T00:25:31.227Z,6.00
2019-04-29T00:27:35.089Z,3.73
2019-04-29T00:29:38.952Z,3.80
2019-04-29T00:31:42.851Z,7.27
2019-04-29T00:33:46.733Z,7.37
2019-04-29T00:35:50.646Z,4.33
2019-04-29T00:38:14.241Z,6.00
2019-04-29T00:40:38.128Z,2.97
2019-04-29T00:42:43.583Z,3.50
2019-04-29T00:44:47.496Z,3.17
2019-04-29T00:46:52.027Z,7.27
2019-04-29T00:48:56.125Z,3.67
2019-04-29T00:51:00.024Z,3.00
2019-04-29T00:53:03.898Z,3.30
2019-04-29T00:55:10.599Z,3.77
2019-04-29T00:57:14.632Z,3.27
2019-04-29T00:59:19.463Z,5.27
2019-04-29T01:01:25.329Z,6.97
2019-04-29T01:03:29.184Z,4.27
2019-04-29T01:05:33.113Z,3.57
2019-04-29T01:07:36.964Z,4.57
2019-04-29T01:09:41.245Z,3.40
2019-04-29T01:11:48.040Z,6.77
2019-04-29T01:13:54.408Z,3.10
2019-04-29T01:15:58.320Z,2.97
2019-04-29T01:18:02.174Z,3.63
2019-04-29T01:20:07.751Z,3.37
2019-04-29T01:22:11.664Z,4.23
2019-04-29T01:24:15.524Z,3.00
2019-04-29T01:26:23.700Z,4.23
2019-04-29T01:28:31.884Z,4.83
2019-04-29T01:30:41.479Z,5.03
2019-04-29T01:32:45.332Z,5.23
2019-04-29T01:34:50.865Z,6.37
2019-04-29T01:36:55.134Z,4.27
2019-04-29T01:39:01.611Z,4.37
2019-04-29T01:41:13.127Z,5.30
2019-04-29T01:43:17.872Z,4.00
2019-04-29T01:45:21.818Z,4.80
2019-04-29T01:47:25.861Z,4.67
2019-04-29T01:49:32.025Z,3.77
2019-04-29T01:51:36.192Z,2.10
2019-04-29T01:53:46.082Z,3.20
2019-04-29T01:55:50.154Z,3.07
2019-04-29T01:57:54.061Z,2.30
2019-04-29T02:00:00.439Z,2.47
2019-04-29T02:02:05.584Z,3.50
2019-04-29T02:04:11.671Z,3.70
2019-04-29T02:06:15.791Z,2.80
2019-04-29T02:08:19.784Z,3.20
2019-04-29T02:10:28.312Z,2.93
2019-04-29T02:12:32.523Z,3.30
2019-04-29T02:14:39.189Z,2.33
2019-04-29T02:16:45.417Z,3.13
2019-04-29T02:18:50.888Z,2.37
2019-04-29T02:20:54.793Z,2.67
2019-04-29T02:23:04.638Z,2.20
2019-04-29T02:25:10.908Z,2.33
2019-04-29T02:27:14.773Z,2.97
2019-04-29T02:29:18.701Z,2.50
2019-04-29T02:31:40.419Z,2.47
2019-04-29T02:33:44.437Z,2.73
2019-04-29T02:35:48.593Z,2.40
2019-04-29T02:37:53.862Z,2.13
2019-04-29T02:40:02.481Z,3.27
2019-04-29T02:42:10.080Z,2.70
2019-04-29T02:44:14.648Z,3.00
2019-04-29T02:46:18.947Z,1.90
2019-04-29T02:48:22.918Z,2.23
2019-04-29T02:50:26.882Z,2.03
2019-04-29T02:52:30.774Z,2.10
2019-04-29T02:54:34.841Z,2.13
2019-04-29T02:56:43.337Z,1.90
2019-04-29T02:58:50.617Z,3.27
2019-04-29T03:01:12.874Z,2.33
2019-04-29T03:03:21.584Z,2.47
2019-04-29T03:05:28.355Z,3.07
2019-04-29T03:07:32.546Z,3.80
2019-04-29T03:09:38.093Z,2.60
2019-04-29T03:11:42.120Z,2.27
2019-04-29T03:13:46.018Z,2.93
2019-04-29T03:15:50.527Z,3.20
2019-04-29T03:17:55.306Z,3.43
2019-04-29T03:20:14.218Z,4.63
2019-04-29T03:22:20.065Z,3.70
2019-04-29T03:24:23.927Z,3.07
2019-04-29T03:26:27.787Z,2.50
2019-04-29T03:28:31.854Z,2.47
2019-04-29T03:30:35.722Z,2.60
2019-04-29T03:32:39.765Z,3.03
2019-04-29T03:34:43.696Z,4.03
2019-04-29T03:36:50.051Z,3.20
2019-04-29T03:38:54.056Z,2.20
2019-04-29T03:40:58.122Z,4.57
2019-04-29T03:43:02.991Z,2.57
2019-04-29T03:45:07.703Z,2.80
2019-04-29T03:47:11.556Z,2.50
2019-04-29T03:49:15.903Z,3.20
2019-04-29T03:51:19.752Z,2.20
2019-04-29T03:53:27.970Z,3.03
2019-04-29T03:55:38.957Z,4.00
2019-04-29T03:57:38.501Z,4.33
2019-04-29T03:59:42.619Z,6.20
2019-04-29T04:01:53.891Z,5.83
2019-04-29T04:04:02.614Z,3.60
2019-04-29T04:06:08.668Z,4.03
2019-04-29T04:08:20.151Z,4.40
2019-04-29T04:10:24.769Z,2.60
2019-04-29T04:12:29.633Z,3.27
2019-04-29T04:14:33.711Z,2.70
2019-04-29T04:16:57.576Z,3.47
2019-04-29T04:19:10.007Z,2.53
2019-04-29T04:21:14.188Z,2.20
2019-04-29T04:23:18.302Z,2.87
2019-04-29T04:25:22.818Z,4.07
2019-04-29T04:27:26.824Z,3.20
2019-04-29T04:29:30.841Z,3.27
2019-04-29T04:31:35.552Z,3.03
2019-04-29T04:33:43.322Z,3.30
2019-04-29T04:35:47.568Z,3.60
2019-04-29T04:37:51.770Z,2.90
2019-04-29T04:39:55.773Z,3.40
2019-04-29T04:41:59.628Z,4.60
2019-04-29T04:44:03.991Z,3.30
2019-04-29T04:46:08.100Z,3.20
2019-04-29T04:48:12.208Z,3.10
2019-04-29T04:50:16.225Z,3.07
2019-04-29T04:52:20.093Z,3.73
2019-04-29T04:54:24.023Z,3.30
2019-04-29T04:56:28.029Z,3.73
2019-04-29T04:58:32.137Z,3.23
2019-04-29T05:00:39.154Z,2.53
2019-04-29T05:02:43.312Z,3.13
2019-04-29T05:04:49.400Z,3.60
2019-04-29T05:06:53.687Z,2.63
2019-04-29T05:08:57.799Z,2.73
2019-04-29T05:11:02.179Z,2.77
2019-04-29T05:13:06.494Z,2.27
2019-04-29T05:15:11.321Z,2.13
2019-04-29T05:17:15.774Z,2.93
2019-04-29T05:19:19.880Z,2.30
2019-04-29T05:21:24.086Z,2.37
2019-04-29T05:23:28.096Z,3.53
2019-04-29T05:25:33.932Z,2.90
2019-04-29T05:27:38.939Z,3.13
2019-04-29T05:29:43.188Z,3.53
2019-04-29T05:31:47.400Z,3.27
2019-04-29T05:33:51.405Z,2.00
2019-04-29T05:36:03.887Z,3.50
2019-04-29T05:38:25.795Z,2.27
2019-04-29T05:40:51.346Z,3.33
2019-04-29T05:42:55.633Z,3.33
2019-04-29T05:45:01.364Z,3.60
2019-04-29T05:47:13.452Z,3.07
2019-04-29T05:49:18.890Z,3.07
2019-04-29T05:51:28.535Z,3.20
2019-04-29T05:53:34.333Z,2.30
2019-04-29T05:55:39.465Z,3.03
2019-04-29T05:57:43.774Z,7.77
2019-04-29T05:59:49.199Z,2.60
2019-04-29T06:01:53.430Z,4.77
2019-04-29T06:03:57.320Z,5.60
2019-04-29T06:06:01.336Z,4.73
2019-04-29T06:08:05.662Z,2.00
2019-04-29T06:10:10.625Z,4.17
2019-04-29T06:12:14.890Z,2.70
2019-04-29T06:14:21.931Z,2.47
2019-04-29T06:16:24.652Z,2.60
2019-04-29T06:18:28.753Z,2.27
2019-04-29T06:20:32.759Z,3.20
2019-04-29T06:22:41.968Z,2.70
2019-04-29T06:24:44.868Z,4.43
2019-04-29T06:26:48.874Z,6.60
2019-04-29T06:28:52.880Z,5.97
2019-04-29T06:30:56.990Z,5.67
2019-04-29T06:33:00.994Z,8.20
2019-04-29T06:35:10.498Z,6.87
2019-04-29T06:37:12.234Z,3.67
2019-04-29T06:39:19.571Z,3.23
2019-04-29T06:41:24.591Z,4.43
2019-04-29T06:43:30.715Z,5.20
2019-04-29T06:45:34.867Z,3.30
2019-04-29T06:47:38.870Z,3.70
2019-04-29T06:49:42.876Z,3.27
2019-04-29T06:51:46.882Z,5.77
2019-04-29T06:53:52.528Z,6.60
2019-04-29T06:55:56.635Z,5.27
2019-04-29T06:58:00.649Z,7.63
2019-04-29T07:00:06.628Z,6.03
2019-04-29T07:02:14.309Z,12.73
2019-04-29T07:04:20.068Z,9.23
2019-04-29T07:06:24.346Z,11.13
2019-04-29T07:08:28.678Z,4.60
2019-04-29T07:10:32.879Z,11.40
2019-04-29T07:12:37.082Z,10.37
2019-04-29T07:14:41.087Z,6.97
2019-04-29T07:16:45.200Z,7.83
2019-04-29T07:18:53.397Z,5.83
2019-04-29T07:20:54.848Z,6.13
2019-04-29T07:23:00.786Z,6.77
2019-04-29T07:25:05.318Z,8.63
2019-04-29T07:27:09.212Z,8.07
2019-04-29T07:29:13.226Z,7.33
2019-04-29T07:31:17.341Z,10.27
2019-04-29T07:33:22.559Z,10.43
2019-04-29T07:35:26.875Z,8.13
2019-04-29T07:37:34.167Z,8.60
2019-04-29T07:39:36.542Z,10.07
2019-04-29T07:41:40.747Z,6.87
2019-04-29T07:43:44.753Z,6.77
2019-04-29T07:45:50.401Z,9.30
2019-04-29T07:47:56.842Z,7.10
2019-04-29T07:50:02.830Z,5.70
2019-04-29T07:52:09.799Z,7.73
2019-04-29T07:54:16.004Z,7.13
2019-04-29T07:56:18.111Z,9.43
2019-04-29T07:58:23.002Z,7.23
2019-04-29T08:00:33.087Z,8.33
2019-04-29T08:02:37.091Z,8.40
2019-04-29T08:04:41.312Z,8.73
2019-04-29T08:06:45.933Z,7.37
2019-04-29T08:09:09.770Z,5.30
2019-04-29T08:11:14.016Z,4.73
2019-04-29T08:13:19.168Z,11.53
2019-04-29T08:15:23.352Z,7.67
2019-04-29T08:17:27.357Z,12.00
2019-04-29T08:19:31.723Z,16.87
2019-04-29T08:21:36.086Z,6.47
2019-04-29T08:23:42.237Z,6.87
2019-04-29T08:25:45.948Z,7.60
2019-04-29T08:27:50.049Z,7.00
2019-04-29T08:29:54.056Z,7.30
2019-04-29T08:32:02.042Z,6.43
2019-04-29T08:34:03.706Z,7.80
2019-04-29T08:36:08.022Z,5.70
2019-04-29T08:38:11.881Z,7.20
2019-04-29T08:40:16.921Z,7.73
2019-04-29T08:42:22.803Z,10.83
2019-04-29T08:44:28.470Z,10.47
2019-04-29T08:46:49.980Z,6.20
2019-04-29T08:48:49.158Z,7.57
2019-04-29T08:50:53.064Z,9.67
2019-04-29T08:52:57.098Z,15.10
2019-04-29T08:55:01.488Z,7.77
2019-04-29T08:57:05.589Z,7.00
2019-04-29T08:59:09.604Z,7.07
2019-04-29T09:01:13.504Z,8.50
2019-04-29T09:03:23.408Z,10.30
2019-04-29T09:05:28.899Z,7.53
2019-04-29T09:07:33.100Z,10.87
2019-04-29T09:09:37.110Z,7.60
2019-04-29T09:11:47.422Z,11.13
2019-04-29T09:13:49.288Z,9.57
2019-04-29T09:15:53.429Z,8.47
2019-04-29T09:17:57.545Z,9.37
2019-04-29T09:20:01.645Z,8.77
2019-04-29T09:22:10.360Z,7.80
2019-04-29T09:24:15.841Z,9.97
2019-04-29T09:26:24.559Z,12.47
2019-04-29T09:28:29.906Z,8.97
2019-04-29T09:30:34.062Z,11.07
2019-04-29T09:32:39.918Z,13.53
2019-04-29T09:34:44.238Z,14.47
2019-04-29T09:36:49.726Z,14.27
2019-04-29T09:38:53.777Z,15.23
2019-04-29T09:41:02.910Z,17.43
2019-04-29T09:43:21.345Z,15.60
2019-04-29T09:45:27.907Z,15.13
2019-04-29T09:47:32.535Z,17.97
2019-04-29T09:49:36.983Z,14.83
2019-04-29T09:51:41.060Z,15.97
2019-04-29T09:53:45.273Z,16.43
2019-04-29T09:55:49.377Z,17.37
2019-04-29T09:57:53.489Z,14.03
2019-04-29T10:00:06.904Z,15.83
2019-04-29T10:02:14.899Z,20.27
2019-04-29T10:04:36.482Z,16.10
2019-04-29T10:06:41.952Z,16.63
2019-04-29T10:08:45.817Z,16.73
2019-04-29T10:10:49.681Z,13.90
2019-04-29T10:12:54.124Z,15.00
2019-04-29T10:14:58.253Z,15.73
2019-04-29T10:17:22.140Z,16.37
2019-04-29T10:19:36.472Z,19.57
2019-04-29T10:21:40.376Z,19.07
2019-04-29T10:23:44.541Z,19.80
2019-04-29T10:25:48.544Z,18.70
2019-04-29T10:27:52.755Z,19.77
2019-04-29T10:29:57.137Z,16.90
2019-04-29T10:32:02.537Z,19.60
2019-04-29T10:34:09.140Z,21.03
2019-04-29T10:36:16.087Z,19.77
2019-04-29T10:38:19.343Z,19.50
2019-04-29T10:40:39.120Z,19.97
2019-04-29T10:42:47.832Z,20.07
2019-04-29T10:45:09.963Z,18.87
2019-04-29T10:47:21.650Z,20.63
2019-04-29T10:49:39.276Z,18.27
2019-04-29T10:51:41.847Z,16.93
2019-04-29T10:53:46.649Z,18.70
2019-04-29T10:55:51.402Z,18.90
2019-04-29T10:57:55.301Z,19.33
2019-04-29T11:00:06.672Z,18.30
2019-04-29T11:02:31.175Z,16.33
2019-04-29T11:04:36.249Z,10.90
2019-04-29T11:06:43.829Z,13.20
2019-04-29T11:08:48.088Z,12.40
2019-04-29T11:11:01.867Z,11.23
2019-04-29T11:12:58.720Z,11.97
2019-04-29T11:15:02.889Z,10.83
2019-04-29T11:17:15.821Z,11.83
2019-04-29T11:19:12.535Z,12.20
2019-04-29T11:21:16.541Z,9.73
2019-04-29T11:23:37.345Z,11.50
2019-04-29T11:25:51.140Z,10.23
2019-04-29T11:27:55.981Z,8.57
2019-04-29T11:30:02.779Z,11.30
2019-04-29T11:32:06.055Z,12.17
2019-04-29T11:34:15.367Z,15.00
2019-04-29T11:36:21.654Z,14.83
2019-04-29T11:38:28.642Z,14.37
2019-04-29T11:40:43.221Z,14.23
2019-04-29T11:42:41.654Z,13.17
2019-04-29T11:44:42.807Z,13.53
2019-04-29T11:46:48.978Z,13.90
2019-04-29T11:48:54.089Z,13.00
2019-04-29T11:51:05.979Z,12.33
2019-04-29T11:53:11.444Z,12.20
2019-04-29T11:55:18.593Z,11.30
2019-04-29T11:57:25.171Z,12.20
2019-04-29T11:59:33.374Z,11.87
2019-04-29T12:01:42.935Z,15.20
2019-04-29T12:03:46.096Z,12.20
2019-04-29T12:06:03.515Z,8.97
2019-04-29T12:08:16.167Z,11.83
2019-04-29T12:10:13.574Z,11.57
2019-04-29T12:12:18.299Z,10.27
2019-04-29T12:14:23.944Z,10.00
2019-04-29T12:16:44.844Z,9.40
2019-04-29T12:18:50.602Z,11.50
2019-04-29T12:21:12.543Z,11.63
2019-04-29T12:23:17.292Z,11.47
2019-04-29T12:25:22.942Z,12.80
2019-04-29T12:27:29.157Z,9.63
2019-04-29T12:29:32.733Z,8.73
2019-04-29T12:31:44.808Z,10.07
2019-04-29T12:34:03.491Z,9.80
2019-04-29T12:36:09.233Z,8.37
2019-04-29T12:38:39.404Z,8.23
2019-04-29T12:40:54.682Z,7.33
2019-04-29T12:43:16.276Z,5.83
2019-04-29T12:45:33.463Z,5.30
2019-04-29T12:47:38.992Z,5.00
2019-04-29T12:49:46.349Z,4.63
2019-04-29T12:51:48.958Z,4.70
2019-04-29T12:53:52.975Z,4.23
2019-04-29T12:55:57.689Z,4.53
2019-04-29T12:58:01.795Z,5.23
2019-04-29T13:00:09.387Z,3.60
2019-04-29T13:02:24.699Z,5.83
2019-04-29T13:04:49.927Z,4.50
2019-04-29T13:07:12.816Z,4.80
2019-04-29T13:09:30.433Z,5.93
2019-04-29T13:11:45.486Z,5.33
2019-04-29T13:13:40.084Z,5.43
2019-04-29T13:15:48.416Z,4.10
2019-04-29T13:18:04.142Z,4.53
2019-04-29T13:20:13.130Z,4.20
2019-04-29T13:22:17.309Z,5.93
2019-04-29T13:24:25.160Z,4.63
2019-04-29T13:26:28.736Z,5.60
2019-04-29T13:28:34.647Z,5.20
2019-04-29T13:30:38.862Z,4.93
2019-04-29T13:32:42.971Z,5.30
2019-04-29T13:34:48.617Z,5.47
2019-04-29T13:37:06.613Z,5.83
2019-04-29T13:38:58.272Z,4.33
2019-04-29T13:41:13.069Z,5.40
2019-04-29T13:43:07.817Z,5.93
2019-04-29T13:45:14.076Z,4.40
2019-04-29T13:47:29.357Z,5.40
2019-04-29T13:49:39.360Z,4.90
2019-04-29T13:51:44.769Z,5.07
2019-04-29T13:53:48.634Z,4.53
2019-04-29T13:56:10.358Z,6.07
2019-04-29T13:57:58.096Z,5.43
2019-04-29T14:00:12.469Z,7.23
2019-04-29T14:02:22.227Z,8.47
2019-04-29T14:04:26.231Z,5.97
2019-04-29T14:06:31.710Z,7.07
2019-04-29T14:08:35.595Z,6.50
2019-04-29T14:10:39.576Z,6.40
2019-04-29T14:12:49.036Z,7.47
2019-04-29T14:14:49.010Z,9.37
2019-04-29T14:17:11.583Z,7.83
2019-04-29T14:18:58.427Z,8.00
2019-04-29T14:21:02.280Z,7.73
2019-04-29T14:23:06.187Z,7.50
2019-04-29T14:25:13.123Z,8.37
2019-04-29T14:27:24.528Z,8.23
2019-04-29T14:29:23.055Z,8.00
2019-04-29T14:31:30.042Z,9.87
2019-04-29T14:33:33.972Z,11.87
2019-04-29T14:35:39.421Z,10.60
2019-04-29T14:37:54.457Z,11.07
2019-04-29T14:39:48.868Z,11.77
2019-04-29T14:41:55.509Z,11.60
2019-04-29T14:44:07.179Z,11.70
2019-04-29T14:46:16.175Z,11.17
2019-04-29T14:48:21.972Z,10.20
2019-04-29T14:50:25.840Z,9.70
2019-04-29T14:52:29.703Z,11.50
2019-04-29T14:54:36.799Z,11.03
2019-04-29T14:56:39.304Z,12.90
2019-04-29T14:58:43.586Z,10.23
2019-04-29T15:00:49.384Z,10.80
2019-04-29T15:02:55.970Z,9.83
2019-04-29T15:04:59.159Z,9.50
2019-04-29T15:07:03.164Z,11.07
2019-04-29T15:09:16.957Z,10.07
2019-04-29T15:11:31.638Z,11.87
2019-04-29T15:13:26.247Z,10.23
2019-04-29T15:15:38.481Z,13.47
2019-04-29T15:17:44.950Z,10.43
2019-04-29T15:19:55.738Z,13.77
2019-04-29T15:22:01.383Z,15.13
2019-04-29T15:24:05.487Z,11.40
2019-04-29T15:26:09.597Z,17.57
2019-04-29T15:28:13.599Z,18.30
2019-04-29T15:30:18.879Z,19.07
2019-04-29T15:32:23.810Z,21.27
2019-04-29T15:34:28.183Z,23.47
2019-04-29T15:36:34.907Z,21.63
2019-04-29T15:38:38.038Z,20.73
2019-04-29T15:40:43.172Z,22.67
2019-04-29T15:42:50.972Z,27.67
2019-04-29T15:44:55.804Z,29.13
2019-04-29T15:46:58.566Z,29.83
2019-04-29T15:49:02.675Z,25.43
2019-04-29T15:51:09.146Z,32.93
2019-04-29T15:53:12.435Z,34.87
2019-04-29T15:55:16.538Z,36.87
2019-04-29T15:57:20.620Z,37.47
2019-04-29T15:59:25.061Z,34.10
2019-04-29T16:01:30.409Z,31.77
2019-04-29T16:03:37.310Z,33.97
2019-04-29T16:06:04.605Z,32.13
2019-04-29T16:07:55.817Z,29.83
2019-04-29T16:09:59.126Z,37.27
2019-04-29T16:12:14.443Z,35.77
2019-04-29T16:14:17.991Z,24.10
2019-04-29T16:16:22.041Z,32.03
2019-04-29T16:18:26.205Z,31.73
2019-04-29T16:20:30.315Z,34.07
2019-04-29T16:22:38.865Z,37.00
2019-04-29T16:24:39.967Z,34.20
2019-04-29T16:26:43.970Z,33.13
2019-04-29T16:28:48.081Z,31.23
2019-04-29T16:30:52.295Z,27.67
2019-04-29T16:32:56.506Z,29.53
2019-04-29T16:35:00.407Z,27.70
2019-04-29T16:37:04.722Z,28.57
2019-04-29T16:39:09.034Z,26.57
2019-04-29T16:41:31.065Z,24.33
2019-04-29T16:43:36.702Z,23.90
2019-04-29T16:45:44.313Z,23.23
2019-04-29T16:47:48.774Z,22.00
2019-04-29T16:49:57.516Z,23.53
2019-04-29T16:51:58.771Z,20.83
2019-04-29T16:54:02.884Z,17.83
2019-04-29T16:56:07.095Z,22.93
2019-04-29T16:58:17.681Z,21.77
2019-04-29T17:00:18.995Z,20.53
2019-04-29T17:02:23.207Z,23.20
2019-04-29T17:04:27.212Z,24.90
2019-04-29T17:06:36.118Z,25.63
2019-04-29T17:08:38.289Z,20.17
2019-04-29T17:10:46.912Z,19.10
2019-04-29T17:12:51.949Z,19.07
2019-04-29T17:15:04.232Z,24.00
2019-04-29T17:17:09.009Z,19.40
2019-04-29T17:19:20.781Z,24.13
2019-04-29T17:21:32.235Z,16.67
2019-04-29T17:23:36.860Z,12.90
2019-04-29T17:25:40.966Z,12.07
2019-04-29T17:27:52.540Z,11.27
2019-04-29T17:30:03.554Z,11.83
2019-04-29T17:32:21.351Z,12.37
2019-04-29T17:34:56.061Z,12.23
2019-04-29T17:36:33.260Z,12.90
2019-04-29T17:38:37.260Z,12.77
2019-04-29T17:40:50.640Z,13.57
2019-04-29T17:42:48.549Z,18.63
2019-04-29T17:44:52.758Z,13.10
2019-04-29T17:47:15.100Z,14.53
2019-04-29T17:49:29.348Z,16.83
2019-04-29T17:51:29.476Z,17.37
2019-04-29T17:53:35.532Z,16.83
2019-04-29T17:55:45.319Z,17.63
2019-04-29T17:57:54.889Z,20.53
2019-04-29T18:00:09.610Z,15.80
2019-04-29T18:02:31.789Z,17.30
2019-04-29T18:04:40.253Z,16.70
2019-04-29T18:06:49.158Z,14.73
2019-04-29T18:08:58.031Z,14.23
2019-04-29T18:11:06.492Z,14.10
2019-04-29T18:13:12.288Z,12.97
2019-04-29T18:15:20.046Z,16.93
2019-04-29T18:17:30.416Z,18.07
2019-04-29T18:19:34.496Z,15.00
2019-04-29T18:21:56.019Z,17.87
2019-04-29T18:24:07.443Z,13.87
2019-04-29T18:26:14.757Z,16.10
2019-04-29T18:28:18.839Z,14.33
2019-04-29T18:30:35.386Z,15.13
2019-04-29T18:32:35.693Z,15.73
2019-04-29T18:34:37.418Z,15.40
2019-04-29T18:36:41.210Z,13.80
2019-04-29T18:38:48.754Z,13.73
2019-04-29T18:40:50.967Z,17.40
2019-04-29T18:42:55.365Z,14.07
2019-04-29T18:45:00.455Z,14.80
2019-04-29T18:47:05.690Z,17.90
2019-04-29T18:49:09.856Z,15.70
2019-04-29T18:51:15.339Z,17.30
2019-04-29T18:53:19.834Z,17.47
2019-04-29T18:55:24.028Z,18.93
2019-04-29T18:57:30.829Z,20.70
2019-04-29T18:59:36.687Z,21.03
2019-04-29T19:01:40.964Z,11.57
2019-04-29T19:03:55.926Z,12.97
2019-04-29T19:06:03.163Z,16.10
2019-04-29T19:08:14.327Z,15.53
2019-04-29T19:10:14.349Z,18.27
2019-04-29T19:12:18.406Z,15.80
2019-04-29T19:14:25.597Z,18.37
2019-04-29T19:16:28.254Z,17.40
2019-04-29T19:18:32.160Z,10.43
2019-04-29T19:20:36.269Z,13.53
2019-04-29T19:22:44.031Z,16.23
2019-04-29T19:24:47.950Z,14.13
2019-04-29T19:26:55.671Z,16.40
2019-04-29T19:29:01.160Z,41.13
2019-04-29T19:31:03.438Z,27.50
2019-04-29T19:33:09.022Z,19.83
2019-04-29T19:35:16.559Z,19.03
2019-04-29T19:37:19.481Z,17.27
2019-04-29T19:39:25.263Z,15.67
2019-04-29T19:41:29.138Z,16.63
2019-04-29T19:43:32.988Z,12.73
2019-04-29T19:45:37.041Z,16.23
2019-04-29T19:47:41.044Z,24.33
2019-04-29T19:49:45.862Z,15.07
2019-04-29T19:51:50.287Z,17.70
2019-04-29T19:53:55.196Z,14.33
2019-04-29T19:56:03.765Z,17.00
2019-04-29T19:58:07.571Z,16.63
2019-04-29T20:00:12.382Z,18.40
2019-04-29T20:02:17.437Z,14.30
2019-04-29T20:04:32.602Z,21.10
2019-04-29T20:06:37.478Z,14.63
2019-04-29T20:08:53.481Z,13.93
2019-04-29T20:10:51.270Z,16.40
2019-04-29T20:12:54.895Z,13.73
2019-04-29T20:15:02.259Z,15.53
2019-04-29T20:17:23.957Z,12.93
2019-04-29T20:19:33.155Z,16.53
2019-04-29T20:21:42.204Z,13.50
2019-04-29T20:23:46.980Z,12.00
2019-04-29T20:25:51.229Z,12.23
2019-04-29T20:28:05.621Z,12.27
2019-04-29T20:30:02.530Z,12.97
2019-04-29T20:32:07.930Z,11.97
2019-04-29T20:34:31.632Z,13.00
2019-04-29T20:36:41.599Z,12.90
2019-04-29T20:38:41.855Z,13.73
2019-04-29T20:40:46.580Z,12.90
2019-04-29T20:42:50.964Z,11.63
2019-04-29T20:44:57.396Z,15.20
2019-04-29T20:47:16.555Z,12.90
2019-04-29T20:49:07.340Z,13.47
2019-04-29T20:51:13.867Z,13.90
2019-04-29T20:53:37.962Z,13.60
2019-04-29T20:55:39.409Z,12.73
2019-04-29T20:57:47.943Z,13.87
2019-04-29T20:59:55.090Z,12.23
2019-04-29T21:02:11.142Z,11.13
2019-04-29T21:04:08.608Z,11.63
2019-04-29T21:06:13.897Z,13.47
2019-04-29T21:08:19.205Z,16.30
2019-04-29T21:10:25.089Z,12.63
2019-04-29T21:12:34.749Z,13.53
2019-04-29T21:14:40.377Z,11.97
2019-04-29T21:16:45.848Z,10.57
2019-04-29T21:18:52.808Z,11.07
2019-04-29T21:20:59.623Z,11.10
2019-04-29T21:23:03.795Z,13.53
2019-04-29T21:25:07.852Z,11.10
2019-04-29T21:27:15.900Z,10.90
2019-04-29T21:29:19.448Z,14.70
2019-04-29T21:31:22.830Z,10.27
2019-04-29T21:33:27.033Z,11.97
2019-04-29T21:35:32.480Z,12.43
2019-04-29T21:37:40.097Z,15.43
2019-04-29T21:40:00.399Z,15.53
2019-04-29T21:42:06.162Z,13.40
2019-04-29T21:44:10.061Z,12.57
2019-04-29T21:46:18.022Z,17.20
2019-04-29T21:48:19.488Z,15.53
2019-04-29T21:50:29.017Z,15.37
2019-04-29T21:52:28.926Z,14.80
2019-04-29T21:54:33.151Z,16.90
2019-04-29T21:56:39.737Z,16.27
2019-04-29T21:58:43.013Z,16.23
2019-04-29T22:00:47.115Z,14.53
2019-04-29T22:02:51.222Z,14.60
2019-04-29T22:04:55.436Z,14.60
2019-04-29T22:06:59.871Z,15.47
2019-04-29T22:09:07.953Z,16.20
2019-04-29T22:11:15.480Z,17.40
2019-04-29T22:13:17.603Z,15.93
2019-04-29T22:15:32.157Z,16.27
2019-04-29T22:17:32.976Z,17.70
2019-04-29T22:19:35.095Z,15.93
2019-04-29T22:21:39.585Z,15.07
2019-04-29T22:23:50.497Z,16.17
2019-04-29T22:25:49.531Z,15.93
2019-04-29T22:27:55.273Z,15.80
2019-04-29T22:29:59.304Z,14.57
2019-04-29T22:32:07.558Z,14.77
2019-04-29T22:34:10.070Z,15.27
2019-04-29T22:36:18.027Z,12.07
2019-04-29T22:38:20.424Z,15.30
2019-04-29T22:40:25.294Z,17.60
2019-04-29T22:42:46.563Z,16.00
2019-04-29T22:44:52.570Z,15.30
2019-04-29T22:46:56.914Z,15.17
2019-04-29T22:49:01.037Z,15.67
2019-04-29T22:51:05.897Z,17.10
2019-04-29T22:53:09.866Z,16.10
2019-04-29T22:55:15.490Z,14.77
2019-04-29T22:57:23.003Z,14.47
2019-04-29T22:59:27.495Z,15.60
2019-04-29T23:01:31.114Z,15.27
2019-04-29T23:03:37.514Z,15.67
2019-04-29T23:05:40.663Z,16.37
2019-04-29T23:07:45.576Z,15.33
2019-04-29T23:09:49.799Z,15.43
2019-04-29T23:11:55.600Z,16.23
2019-04-29T23:14:01.665Z,15.03
2019-04-29T23:16:05.199Z,14.97
2019-04-29T23:18:09.206Z,15.30
2019-04-29T23:20:28.813Z,14.63
2019-04-29T23:22:46.618Z,14.73
2019-04-29T23:24:55.716Z,15.40
2019-04-29T23:27:00.149Z,14.80
2019-04-29T23:29:07.162Z,19.23
2019-04-29T23:31:09.905Z,17.33
2019-04-29T23:33:17.087Z,13.27
2019-04-29T23:35:19.863Z,14.90
2019-04-29T23:37:27.554Z,15.23
2019-04-29T23:39:29.616Z,15.87
2019-04-29T23:41:36.533Z,15.47
2019-04-29T23:43:39.103Z,15.83
2019-04-29T23:45:44.934Z,15.87
2019-04-29T23:47:50.404Z,18.10
2019-04-29T23:49:54.560Z,18.33
2019-04-29T23:51:58.676Z,16.00
2019-04-29T23:54:05.921Z,15.13
2019-04-29T23:56:09.694Z,13.10
2019-04-29T23:58:32.565Z,13.53
